createdAt,value
2022-07-26T00:01:14.128Z,101252.81
2022-07-26T00:03:40.589Z,101257.09
2022-07-26T00:06:07.087Z,101253.44
2022-07-26T00:08:33.574Z,101254.88
2022-07-26T00:11:00.214Z,101257.88
2022-07-26T00:13:34.659Z,101257.44
2022-07-26T00:16:01.111Z,101253.00
2022-07-26T00:18:27.559Z,101258.91
2022-07-26T00:20:55.571Z,101260.38
2022-07-26T00:23:22.175Z,101260.91
2022-07-26T00:25:48.621Z,101253.34
2022-07-26T00:28:15.103Z,101261.69
2022-07-26T00:30:41.802Z,101253.97
2022-07-26T00:33:08.280Z,101259.91
2022-07-26T00:35:34.935Z,101256.59
2022-07-26T00:38:01.416Z,101259.25
2022-07-26T00:40:27.858Z,101263.97
2022-07-26T00:42:54.774Z,101264.97
2022-07-26T00:45:21.238Z,101258.06
2022-07-26T00:47:47.612Z,101265.81
2022-07-26T00:50:16.886Z,101256.19
2022-07-26T00:52:44.680Z,101263.34
2022-07-26T00:55:11.971Z,101265.19
2022-07-26T00:57:38.778Z,101268.06
2022-07-26T01:00:08.273Z,101262.72
2022-07-26T01:02:34.995Z,101269.06
2022-07-26T01:05:01.800Z,101268.44
2022-07-26T01:07:29.124Z,101263.50
2022-07-26T01:09:55.676Z,101264.13
2022-07-26T01:12:22.165Z,101260.84
2022-07-26T01:14:48.556Z,101270.25
2022-07-26T01:17:15.405Z,101256.50
2022-07-26T01:19:42.331Z,101258.28
2022-07-26T01:22:13.920Z,101257.47
2022-07-26T01:24:40.952Z,101249.69
2022-07-26T01:27:07.947Z,101252.78
2022-07-26T01:29:35.918Z,101248.88
2022-07-26T01:32:04.041Z,101251.13
2022-07-26T01:34:30.544Z,101247.63
2022-07-26T01:36:57.335Z,101245.59
2022-07-26T01:39:23.973Z,101249.50
2022-07-26T01:41:50.386Z,101247.00
2022-07-26T01:44:16.780Z,101249.88
2022-07-26T01:46:43.195Z,101253.94
2022-07-26T01:49:09.753Z,101250.28
2022-07-26T01:51:36.416Z,101258.47
2022-07-26T01:54:02.886Z,101261.09
2022-07-26T01:56:29.325Z,101257.38
2022-07-26T01:58:55.708Z,101262.25
2022-07-26T02:01:38.812Z,101258.59
2022-07-26T02:04:06.738Z,101268.78
2022-07-26T02:06:34.422Z,101262.56
2022-07-26T02:09:00.967Z,101267.06
2022-07-26T02:11:28.540Z,101265.84
2022-07-26T02:13:54.918Z,101268.72
2022-07-26T02:16:21.445Z,101264.84
2022-07-26T02:18:47.948Z,101265.84
2022-07-26T02:21:14.318Z,101275.31
2022-07-26T02:23:41.433Z,101265.22
2022-07-26T02:26:08.298Z,101266.63
2022-07-26T02:28:34.644Z,101269.25
2022-07-26T02:31:01.133Z,101268.41
2022-07-26T02:33:27.838Z,101261.91
2022-07-26T02:35:54.206Z,101266.38
2022-07-26T02:38:20.619Z,101270.13
2022-07-26T02:40:50.448Z,101265.84
2022-07-26T02:43:17.095Z,101268.09
2022-07-26T02:45:43.629Z,101270.13
2022-07-26T02:48:10.415Z,101273.41
2022-07-26T02:50:36.963Z,101283.03
2022-07-26T02:53:03.349Z,101276.47
2022-07-26T02:55:29.932Z,101287.28
2022-07-26T02:57:56.467Z,101286.06
2022-07-26T03:00:25.914Z,101287.16
2022-07-26T03:02:53.271Z,101289.19
2022-07-26T03:05:21.113Z,101291.47
2022-07-26T03:07:47.793Z,101294.50
2022-07-26T03:10:14.691Z,101288.72
2022-07-26T03:12:59.305Z,101293.22
2022-07-26T03:15:25.973Z,101302.22
2022-07-26T03:17:52.365Z,101300.38
2022-07-26T03:20:18.748Z,101304.31
2022-07-26T03:22:45.142Z,101312.84
2022-07-26T03:25:11.588Z,101315.59
2022-07-26T03:27:37.998Z,101313.59
2022-07-26T03:30:05.912Z,101310.63
2022-07-26T03:32:32.351Z,101314.13
2022-07-26T03:34:58.947Z,101313.50
2022-07-26T03:37:25.588Z,101312.47
2022-07-26T03:40:12.048Z,101310.44
2022-07-26T03:42:38.576Z,101314.94
2022-07-26T03:45:05.486Z,101326.47
2022-07-26T03:47:31.867Z,101310.69
2022-07-26T03:49:58.281Z,101319.94
2022-07-26T03:52:24.641Z,101317.66
2022-07-26T03:54:51.011Z,101324.94
2022-07-26T03:57:17.640Z,101324.38
2022-07-26T03:59:43.983Z,101327.88
2022-07-26T04:02:10.386Z,101332.09
2022-07-26T04:04:36.815Z,101334.47
2022-07-26T04:07:03.919Z,101335.22
2022-07-26T04:09:30.900Z,101340.16
2022-07-26T04:11:57.323Z,101343.38
2022-07-26T04:14:23.758Z,101344.81
2022-07-26T04:16:50.317Z,101345.22
2022-07-26T04:19:16.822Z,101352.16
2022-07-26T04:21:43.272Z,101348.22
2022-07-26T04:24:10.267Z,101349.44
2022-07-26T04:26:37.026Z,101348.41
2022-07-26T04:29:03.555Z,101354.75
2022-07-26T04:31:36.254Z,101350.00
2022-07-26T04:34:03.026Z,101355.69
2022-07-26T04:36:29.405Z,101366.94
2022-07-26T04:38:55.748Z,101359.16
2022-07-26T04:41:22.216Z,101352.38
2022-07-26T04:43:48.604Z,101360.34
2022-07-26T04:46:15.142Z,101356.25
2022-07-26T04:48:41.721Z,101363.81
2022-07-26T04:51:08.130Z,101359.53
2022-07-26T04:53:34.556Z,101354.97
2022-07-26T04:56:01.286Z,101360.91
2022-07-26T04:58:27.648Z,101361.56
2022-07-26T05:01:09.603Z,101364.22
2022-07-26T05:03:37.006Z,101371.16
2022-07-26T05:06:03.481Z,101372.19
2022-07-26T05:08:29.852Z,101373.19
2022-07-26T05:10:56.274Z,101374.91
2022-07-26T05:13:29.942Z,101379.88
2022-07-26T05:15:57.233Z,101380.22
2022-07-26T05:18:23.594Z,101382.88
2022-07-26T05:20:51.479Z,101386.28
2022-07-26T05:23:18.166Z,101392.75
2022-07-26T05:25:44.566Z,101394.25
2022-07-26T05:28:11.646Z,101399.09
2022-07-26T05:30:38.268Z,101400.56
2022-07-26T05:33:04.711Z,101394.50
2022-07-26T05:35:31.087Z,101400.94
2022-07-26T05:37:57.538Z,101401.38
2022-07-26T05:40:24.007Z,101396.88
2022-07-26T05:42:50.364Z,101400.00
2022-07-26T05:45:17.218Z,101392.47
2022-07-26T05:47:43.611Z,101402.34
2022-07-26T05:50:10.236Z,101400.69
2022-07-26T05:52:36.777Z,101405.84
2022-07-26T05:55:03.369Z,101405.28
2022-07-26T05:57:29.789Z,101404.63
2022-07-26T05:59:56.479Z,101415.16
2022-07-26T06:02:22.967Z,101425.59
2022-07-26T06:04:49.575Z,101416.97
2022-07-26T06:07:16.425Z,101425.41
2022-07-26T06:09:52.076Z,101423.66
2022-07-26T06:12:18.858Z,101423.56
2022-07-26T06:14:45.554Z,101423.72
2022-07-26T06:17:12.002Z,101423.97
2022-07-26T06:19:38.531Z,101435.69
2022-07-26T06:22:05.175Z,101437.13
2022-07-26T06:24:34.595Z,101433.84
2022-07-26T06:27:05.272Z,101432.00
2022-07-26T06:29:33.031Z,101433.06
2022-07-26T06:31:59.563Z,101433.72
2022-07-26T06:34:26.027Z,101432.63
2022-07-26T06:36:55.506Z,101435.88
2022-07-26T06:39:21.863Z,101433.84
2022-07-26T06:41:48.470Z,101433.88
2022-07-26T06:44:15.225Z,101432.72
2022-07-26T06:46:41.603Z,101434.63
2022-07-26T06:49:08.054Z,101435.75
2022-07-26T06:51:34.569Z,101443.91
2022-07-26T06:54:01.161Z,101438.47
2022-07-26T06:56:27.868Z,101437.50
2022-07-26T06:58:55.264Z,101446.16
2022-07-26T07:01:58.150Z,101449.00
2022-07-26T07:04:09.146Z,101443.06
2022-07-26T07:06:35.886Z,101453.19
2022-07-26T07:09:02.264Z,101453.47
2022-07-26T07:11:28.629Z,101453.06
2022-07-26T07:13:55.188Z,101463.34
2022-07-26T07:16:21.638Z,101455.06
2022-07-26T07:18:49.091Z,101455.63
2022-07-26T07:21:15.443Z,101462.00
2022-07-26T07:23:41.789Z,101473.19
2022-07-26T07:26:08.604Z,101473.00
2022-07-26T07:28:38.340Z,101478.09
2022-07-26T07:31:05.947Z,101489.41
2022-07-26T07:33:43.895Z,101493.59
2022-07-26T07:36:18.762Z,101503.97
2022-07-26T07:38:45.818Z,101505.72
2022-07-26T07:41:12.184Z,101506.94
2022-07-26T07:43:38.534Z,101510.00
2022-07-26T07:46:05.197Z,101524.22
2022-07-26T07:48:31.724Z,101516.69
2022-07-26T07:50:58.569Z,101519.38
2022-07-26T07:53:25.099Z,101516.63
2022-07-26T07:55:52.748Z,101528.88
2022-07-26T07:58:21.892Z,101530.69
2022-07-26T08:00:48.616Z,101535.34
2022-07-26T08:03:18.738Z,101526.91
2022-07-26T08:05:46.904Z,101528.75
2022-07-26T08:08:16.944Z,101530.78
2022-07-26T08:10:43.672Z,101537.41
2022-07-26T08:13:18.676Z,101540.13
2022-07-26T08:15:47.991Z,101537.56
2022-07-26T08:18:15.728Z,101544.91
2022-07-26T08:20:43.269Z,101558.09
2022-07-26T08:23:10.088Z,101567.09
2022-07-26T08:25:39.984Z,101571.03
2022-07-26T08:28:30.718Z,101569.09
2022-07-26T08:30:59.037Z,101580.31
2022-07-26T08:33:26.314Z,101569.78
2022-07-26T08:35:57.044Z,101581.75
2022-07-26T08:38:24.955Z,101583.13
2022-07-26T08:40:51.572Z,101587.28
2022-07-26T08:43:18.004Z,101596.22
2022-07-26T08:45:45.633Z,101590.91
2022-07-26T08:48:17.683Z,101606.59
2022-07-26T08:50:45.056Z,101594.22
2022-07-26T08:53:13.236Z,101592.69
2022-07-26T08:56:05.407Z,101599.75
2022-07-26T08:58:26.426Z,101605.31
2022-07-26T09:01:12.874Z,101603.41
2022-07-26T09:03:40.286Z,101593.63
2022-07-26T09:06:18.296Z,101599.31
2022-07-26T09:08:47.429Z,101599.78
2022-07-26T09:11:33.213Z,101602.94
2022-07-26T09:14:03.129Z,101612.69
2022-07-26T09:16:29.910Z,101610.56
2022-07-26T09:19:18.892Z,101616.00
2022-07-26T09:21:46.505Z,101622.13
2022-07-26T09:24:13.122Z,101624.91
2022-07-26T09:26:39.554Z,101625.34
2022-07-26T09:29:11.500Z,101625.19
2022-07-26T09:31:39.932Z,101627.50
2022-07-26T09:34:08.119Z,101628.69
2022-07-26T09:36:53.314Z,101638.19
2022-07-26T09:39:22.795Z,101634.44
2022-07-26T09:42:26.700Z,101645.91
2022-07-26T09:44:54.747Z,101645.94
2022-07-26T09:47:21.169Z,101653.72
2022-07-26T09:49:47.929Z,101650.19
2022-07-26T09:52:21.595Z,101652.69
2022-07-26T09:54:49.455Z,101647.53
2022-07-26T09:57:17.989Z,101651.91
2022-07-26T09:59:45.531Z,101643.19
2022-07-26T10:02:14.052Z,101649.19
2022-07-26T10:04:46.434Z,101653.84
2022-07-26T10:07:12.876Z,101650.00
2022-07-26T10:10:00.266Z,101654.31
2022-07-26T10:12:31.123Z,101657.56
2022-07-26T10:14:57.638Z,101667.66
2022-07-26T10:17:29.094Z,101668.13
2022-07-26T10:20:01.675Z,101672.44
2022-07-26T10:22:34.092Z,101674.72
2022-07-26T10:25:18.528Z,101679.66
2022-07-26T10:27:46.311Z,101679.31
2022-07-26T10:30:22.619Z,101679.44
2022-07-26T10:32:52.284Z,101684.28
2022-07-26T10:35:36.178Z,101690.69
2022-07-26T10:38:05.464Z,101704.34
2022-07-26T10:40:32.288Z,101711.56
2022-07-26T10:46:15.815Z,101709.03
2022-07-26T10:49:06.194Z,101707.81
2022-07-26T10:51:40.351Z,101703.25
2022-07-26T10:54:09.386Z,101705.25
2022-07-26T10:56:36.400Z,101707.75
2022-07-26T10:59:04.647Z,101702.81
2022-07-26T11:01:42.853Z,101709.53
2022-07-26T11:04:19.796Z,101710.50
2022-07-26T11:06:46.469Z,101704.53
2022-07-26T11:09:13.261Z,101712.63
2022-07-26T11:11:46.857Z,101717.03
2022-07-26T11:14:16.396Z,101718.09
2022-07-26T11:16:48.498Z,101718.88
2022-07-26T11:19:17.657Z,101710.94
2022-07-26T11:21:45.762Z,101717.81
2022-07-26T11:24:12.395Z,101712.50
2022-07-26T11:26:46.713Z,101714.81
2022-07-26T11:29:17.024Z,101721.34
2022-07-26T11:31:50.954Z,101711.50
2022-07-26T11:34:29.813Z,101717.03
2022-07-26T11:36:58.719Z,101715.44
2022-07-26T11:39:27.818Z,101711.94
2022-07-26T11:42:04.743Z,101716.47
2022-07-26T11:44:32.582Z,101723.38
2022-07-26T11:46:59.210Z,101717.38
2022-07-26T11:50:00.914Z,101711.81
2022-07-26T11:52:15.829Z,101714.97
2022-07-26T11:54:52.912Z,101713.63
2022-07-26T11:57:19.654Z,101713.41
2022-07-26T11:59:48.145Z,101708.69
2022-07-26T12:02:15.322Z,101716.09
2022-07-26T12:04:43.422Z,101715.66
2022-07-26T12:07:10.859Z,101711.88
2022-07-26T12:09:48.506Z,101719.91
2022-07-26T12:12:31.659Z,101734.72
2022-07-26T12:15:07.020Z,101730.47
2022-07-26T12:17:35.255Z,101730.25
2022-07-26T12:20:17.634Z,101737.88
2022-07-26T12:23:00.667Z,101737.06
2022-07-26T12:25:28.186Z,101736.28
2022-07-26T12:27:54.606Z,101735.25
2022-07-26T12:30:21.653Z,101724.75
2022-07-26T12:32:51.429Z,101725.38
2022-07-26T12:35:29.186Z,101730.31
2022-07-26T12:37:55.664Z,101723.94
2022-07-26T12:40:29.141Z,101724.75
2022-07-26T12:43:01.014Z,101732.19
2022-07-26T12:45:31.471Z,101737.50
2022-07-26T12:47:59.867Z,101731.56
2022-07-26T12:50:28.562Z,101726.41
2022-07-26T12:53:09.043Z,101714.63
2022-07-26T12:55:39.052Z,101723.06
2022-07-26T12:58:05.569Z,101715.41
2022-07-26T13:00:32.119Z,101719.78
2022-07-26T13:02:58.544Z,101721.59
2022-07-26T13:05:25.366Z,101722.38
2022-07-26T13:07:52.260Z,101719.69
2022-07-26T13:10:35.715Z,101719.69
2022-07-26T13:13:03.526Z,101729.56
2022-07-26T13:15:35.934Z,101729.91
2022-07-26T13:18:03.183Z,101727.91
2022-07-26T13:20:30.581Z,101729.16
2022-07-26T13:22:56.945Z,101730.53
2022-07-26T13:25:23.304Z,101727.28
2022-07-26T13:27:51.422Z,101739.06
2022-07-26T13:30:17.940Z,101734.31
2022-07-26T13:32:44.310Z,101740.97
2022-07-26T13:35:10.762Z,101741.41
2022-07-26T13:37:38.127Z,101736.69
2022-07-26T13:40:05.608Z,101732.16
2022-07-26T13:42:32.023Z,101739.56
2022-07-26T13:44:58.462Z,101739.56
2022-07-26T13:47:24.826Z,101741.22
2022-07-26T13:49:51.217Z,101731.91
2022-07-26T13:52:17.660Z,101735.38
2022-07-26T13:54:44.077Z,101742.16
2022-07-26T13:57:10.557Z,101746.09
2022-07-26T13:59:36.977Z,101741.16
2022-07-26T14:02:04.942Z,101744.84
2022-07-26T14:04:31.927Z,101750.16
2022-07-26T14:06:58.357Z,101752.38
2022-07-26T14:09:24.762Z,101739.53
2022-07-26T14:11:51.264Z,101747.91
2022-07-26T14:14:17.750Z,101752.00
2022-07-26T14:16:48.141Z,101758.91
2022-07-26T14:19:16.435Z,101758.72
2022-07-26T14:21:59.684Z,101762.28
2022-07-26T14:24:26.802Z,101764.69
2022-07-26T14:26:56.868Z,101759.75
2022-07-26T14:29:25.858Z,101757.16
2022-07-26T14:31:52.509Z,101763.59
2022-07-26T14:34:18.984Z,101760.81
2022-07-26T14:36:45.428Z,101765.28
2022-07-26T14:39:12.052Z,101771.22
2022-07-26T14:41:38.478Z,101771.06
2022-07-26T14:44:05.164Z,101765.84
2022-07-26T14:46:31.665Z,101775.00
2022-07-26T14:48:58.135Z,101787.25
2022-07-26T14:51:24.562Z,101778.84
2022-07-26T14:53:51.059Z,101785.31
2022-07-26T14:56:17.541Z,101790.13
2022-07-26T14:58:43.956Z,101784.16
2022-07-26T15:01:10.803Z,101787.19
2022-07-26T15:03:37.221Z,101789.06
2022-07-26T15:06:03.718Z,101792.88
2022-07-26T15:08:30.184Z,101783.75
2022-07-26T15:10:56.671Z,101784.63
2022-07-26T15:13:23.955Z,101775.53
2022-07-26T15:18:33.912Z,101772.44
2022-07-26T15:21:00.739Z,101773.50
2022-07-26T15:23:27.110Z,101777.66
2022-07-26T15:25:53.571Z,101779.53
2022-07-26T15:28:20.041Z,101774.34
2022-07-26T15:30:46.456Z,101770.00
2022-07-26T15:33:14.388Z,101772.03
2022-07-26T15:35:41.079Z,101760.34
2022-07-26T15:38:07.747Z,101774.38
2022-07-26T15:40:34.619Z,101778.56
2022-07-26T15:43:01.260Z,101775.66
2022-07-26T15:45:28.046Z,101763.78
2022-07-26T15:48:11.007Z,101767.63
2022-07-26T15:50:42.208Z,101766.78
2022-07-26T15:53:08.652Z,101770.06
2022-07-26T15:55:35.124Z,101768.22
2022-07-26T15:58:01.861Z,101764.75
2022-07-26T16:00:28.292Z,101768.69
2022-07-26T16:02:54.727Z,101762.88
2022-07-26T16:05:21.435Z,101755.44
2022-07-26T16:07:47.911Z,101768.19
2022-07-26T16:10:16.229Z,101768.59
2022-07-26T16:12:43.367Z,101767.47
2022-07-26T16:15:10.683Z,101772.97
2022-07-26T16:17:37.674Z,101777.19
2022-07-26T16:20:05.276Z,101774.66
2022-07-26T16:22:32.537Z,101771.22
2022-07-26T16:24:59.142Z,101782.44
2022-07-26T16:27:25.607Z,101786.84
2022-07-26T16:29:52.600Z,101787.06
2022-07-26T16:32:21.044Z,101785.03
2022-07-26T16:34:47.580Z,101785.94
2022-07-26T16:37:14.147Z,101789.69
2022-07-26T16:39:40.546Z,101798.78
2022-07-26T16:42:07.524Z,101796.94
2022-07-26T16:44:35.899Z,101797.16
2022-07-26T16:47:02.489Z,101791.00
2022-07-26T16:49:29.290Z,101783.19
2022-07-26T16:51:56.859Z,101786.25
2022-07-26T16:54:23.217Z,101788.72
2022-07-26T16:56:49.845Z,101801.09
2022-07-26T16:59:16.840Z,101783.44
2022-07-26T17:01:43.674Z,101786.09
2022-07-26T17:04:10.372Z,101791.03
2022-07-26T17:06:36.832Z,101794.75
2022-07-26T17:09:03.502Z,101792.47
2022-07-26T17:11:29.954Z,101797.41
2022-07-26T17:13:56.360Z,101805.19
2022-07-26T17:16:25.072Z,101819.19
2022-07-26T17:18:53.031Z,101824.47
2022-07-26T17:21:19.562Z,101812.31
2022-07-26T17:23:45.929Z,101815.34
2022-07-26T17:26:12.455Z,101809.69
2022-07-26T17:28:38.848Z,101815.56
2022-07-26T17:31:05.267Z,101817.34
2022-07-26T17:33:31.792Z,101821.00
2022-07-26T17:36:02.105Z,101815.41
2022-07-26T17:38:31.077Z,101824.44
2022-07-26T17:40:57.501Z,101823.75
2022-07-26T17:43:25.139Z,101831.00
2022-07-26T17:46:03.854Z,101830.94
2022-07-26T17:48:30.411Z,101830.91
2022-07-26T17:50:56.800Z,101825.25
2022-07-26T17:53:34.234Z,101824.28
2022-07-26T17:56:01.828Z,101825.13
2022-07-26T17:58:28.359Z,101839.22
2022-07-26T18:00:54.720Z,101840.56
2022-07-26T18:03:22.053Z,101840.69
2022-07-26T18:05:49.109Z,101840.69
2022-07-26T18:08:15.675Z,101838.84
2022-07-26T18:10:43.696Z,101840.50
2022-07-26T18:13:12.801Z,101831.44
2022-07-26T18:15:39.565Z,101827.88
2022-07-26T18:18:07.624Z,101823.38
2022-07-26T18:20:34.113Z,101823.94
2022-07-26T18:23:00.548Z,101826.88
2022-07-26T18:25:26.899Z,101827.81
2022-07-26T18:27:53.819Z,101839.47
2022-07-26T18:30:20.297Z,101836.31
2022-07-26T18:32:46.713Z,101838.72
2022-07-26T18:35:13.371Z,101841.84
2022-07-26T18:37:39.805Z,101839.94
2022-07-26T18:40:07.167Z,101841.50
2022-07-26T18:42:33.638Z,101847.81
2022-07-26T18:45:00.091Z,101842.94
2022-07-26T18:47:26.622Z,101849.59
2022-07-26T18:49:53.154Z,101850.16
2022-07-26T18:52:28.689Z,101841.34
2022-07-26T18:54:59.734Z,101843.84
2022-07-26T18:57:26.166Z,101840.16
2022-07-26T18:59:52.580Z,101838.22
2022-07-26T19:02:19.055Z,101834.09
2022-07-26T19:04:45.498Z,101840.41
2022-07-26T19:07:11.899Z,101841.50
2022-07-26T19:09:38.358Z,101839.56
2022-07-26T19:12:04.873Z,101838.25
2022-07-26T19:14:31.612Z,101841.94
2022-07-26T19:16:58.276Z,101856.69
2022-07-26T19:19:24.690Z,101865.53
2022-07-26T19:21:51.055Z,101873.69
2022-07-26T19:24:17.485Z,101861.56
2022-07-26T19:26:44.006Z,101863.56
2022-07-26T19:29:10.628Z,101864.09
2022-07-26T19:31:40.172Z,101870.44
2022-07-26T19:34:06.573Z,101858.38
2022-07-26T19:36:32.993Z,101872.16
2022-07-26T19:39:01.236Z,101875.72
2022-07-26T19:41:27.683Z,101877.53
2022-07-26T19:43:54.126Z,101880.28
2022-07-26T19:46:20.602Z,101885.78
2022-07-26T19:48:47.087Z,101886.75
2022-07-26T19:51:13.692Z,101892.78
2022-07-26T19:53:40.536Z,101892.31
2022-07-26T19:56:07.819Z,101899.16
2022-07-26T19:58:34.743Z,101898.50
2022-07-26T20:01:01.607Z,101899.22
2022-07-26T20:03:28.003Z,101907.91
2022-07-26T20:05:56.654Z,101909.25
2022-07-26T20:08:23.101Z,101907.25
2022-07-26T20:10:50.059Z,101906.13
2022-07-26T20:13:17.001Z,101914.63
2022-07-26T20:15:43.662Z,101915.44
2022-07-26T20:18:10.489Z,101916.97
2022-07-26T20:20:36.995Z,101921.13
2022-07-26T20:23:06.229Z,101919.16
2022-07-26T20:25:33.395Z,101918.50
2022-07-26T20:28:00.337Z,101915.84
2022-07-26T20:30:26.722Z,101911.56
2022-07-26T20:32:53.119Z,101901.97
2022-07-26T20:35:19.624Z,101915.25
2022-07-26T20:37:46.100Z,101916.75
2022-07-26T20:40:13.162Z,101904.16
2022-07-26T20:42:44.200Z,101914.44
2022-07-26T20:45:12.774Z,101914.16
2022-07-26T20:47:42.994Z,101917.28
2022-07-26T20:50:11.268Z,101911.81
2022-07-26T20:52:37.998Z,101916.81
2022-07-26T20:55:05.123Z,101918.78
2022-07-26T20:57:31.484Z,101916.50
2022-07-26T20:59:57.894Z,101923.81
2022-07-26T21:02:24.556Z,101920.66
2022-07-26T21:04:51.190Z,101924.94
2022-07-26T21:07:18.739Z,101929.44
2022-07-26T21:09:45.122Z,101938.06
2022-07-26T21:12:11.510Z,101931.09
2022-07-26T21:14:37.934Z,101933.28
2022-07-26T21:17:09.311Z,101941.41
2022-07-26T21:19:37.987Z,101947.38
2022-07-26T21:22:04.407Z,101945.19
2022-07-26T21:24:30.858Z,101943.53
2022-07-26T21:26:57.284Z,101935.88
2022-07-26T21:29:23.662Z,101942.22
2022-07-26T21:31:50.038Z,101942.03
2022-07-26T21:34:16.667Z,101952.97
2022-07-26T21:36:43.239Z,101949.34
2022-07-26T21:39:10.185Z,101956.81
2022-07-26T21:41:36.940Z,101957.47
2022-07-26T21:44:04.544Z,101964.09
2022-07-26T21:46:31.273Z,101961.41
2022-07-26T21:48:57.853Z,101964.25
2022-07-26T21:51:24.330Z,101959.44
2022-07-26T21:53:50.702Z,101959.94
2022-07-26T21:56:17.427Z,101966.06
2022-07-26T21:58:43.777Z,101966.03
2022-07-26T22:01:12.404Z,101959.56
2022-07-26T22:03:40.576Z,101959.56
2022-07-26T22:06:08.323Z,101964.66
2022-07-26T22:08:35.239Z,101961.53
2022-07-26T22:11:01.991Z,101967.50
2022-07-26T22:13:28.448Z,101964.63
2022-07-26T22:15:54.835Z,101972.56
2022-07-26T22:18:21.288Z,101975.53
2022-07-26T22:20:49.626Z,101976.00
2022-07-26T22:23:17.740Z,101977.59
2022-07-26T22:25:44.636Z,101976.59
2022-07-26T22:28:18.102Z,101985.00
2022-07-26T22:30:45.835Z,101979.34
2022-07-26T22:33:12.281Z,101980.97
2022-07-26T22:35:38.795Z,101976.31
2022-07-26T22:38:09.054Z,101978.13
2022-07-26T22:40:36.851Z,101983.88
2022-07-26T22:43:03.669Z,101980.38
2022-07-26T22:45:30.558Z,101984.84
2022-07-26T22:47:57.946Z,101988.59
2022-07-26T22:50:24.698Z,101987.09
2022-07-26T22:52:51.446Z,101986.72
2022-07-26T22:55:17.829Z,101979.94
2022-07-26T22:57:44.898Z,101983.41
2022-07-26T23:00:13.467Z,101979.25
2022-07-26T23:02:40.114Z,101978.59
2022-07-26T23:05:07.335Z,101981.53
2022-07-26T23:07:35.608Z,101978.88
2022-07-26T23:10:02.505Z,101983.50
2022-07-26T23:12:28.905Z,101973.41
2022-07-26T23:14:55.358Z,101979.16
2022-07-26T23:17:21.790Z,101975.13
2022-07-26T23:19:48.206Z,101978.94
2022-07-26T23:22:14.759Z,101972.44
2022-07-26T23:24:41.274Z,101980.97
2022-07-26T23:27:09.970Z,101981.13
2022-07-26T23:29:36.349Z,101983.28
2022-07-26T23:32:02.797Z,101978.28
2022-07-26T23:34:29.197Z,101974.94
2022-07-26T23:36:55.566Z,101978.41
2022-07-26T23:39:22.444Z,101976.75
2022-07-26T23:41:48.816Z,101975.22
2022-07-26T23:44:15.277Z,101981.50
2022-07-26T23:46:41.765Z,101973.84
2022-07-26T23:49:08.451Z,101970.84
2022-07-26T23:51:35.242Z,101974.31
2022-07-26T23:54:01.648Z,101977.25
2022-07-26T23:56:28.266Z,101977.44
2022-07-26T23:58:54.777Z,101979.06
